sensor_id;sensor_type;location;lat;lon;timestamp;pressure;altitude;pressure_sealevel;temperature;humidity
11395;BME280;5753;54.402;10.220;2023-02-03T00:00:09;101541.66;;;11.45;68.49
11395;BME280;5753;54.402;10.220;2023-02-03T00:02:35;101545.22;;;12.72;63.23
11395;BME280;5753;54.402;10.220;2023-02-03T00:05:01;101531.25;;;12.62;61.60
11395;BME280;5753;54.402;10.220;2023-02-03T00:07:28;101515.50;;;12.06;66.43
11395;BME280;5753;54.402;10.220;2023-02-03T00:09:55;101508.41;;;12.38;63.29
11395;BME280;5753;54.402;10.220;2023-02-03T00:12:22;101520.00;;;11.77;67.34
11395;BME280;5753;54.402;10.220;2023-02-03T00:14:48;101520.16;;;13.73;59.67
11395;BME280;5753;54.402;10.220;2023-02-03T00:17:14;101515.03;;;12.27;62.75
11395;BME280;5753;54.402;10.220;2023-02-03T00:19:40;101490.34;;;10.88;72.44
11395;BME280;5753;54.402;10.220;2023-02-03T00:22:07;101493.56;;;13.26;63.04
11395;BME280;5753;54.402;10.220;2023-02-03T00:24:33;101512.03;;;12.49;64.76
11395;BME280;5753;54.402;10.220;2023-02-03T00:26:59;101492.66;;;11.84;69.06
11395;BME280;5753;54.402;10.220;2023-02-03T00:29:25;101491.84;;;11.86;69.42
11395;BME280;5753;54.402;10.220;2023-02-03T00:31:52;101481.38;;;11.82;73.75
11395;BME280;5753;54.402;10.220;2023-02-03T00:34:19;101467.53;;;12.67;71.24
11395;BME280;5753;54.402;10.220;2023-02-03T00:36:45;101459.97;;;12.78;69.15
11395;BME280;5753;54.402;10.220;2023-02-03T00:39:16;101443.13;;;12.05;70.51
11395;BME280;5753;54.402;10.220;2023-02-03T00:41:42;101446.84;;;13.18;67.22
11395;BME280;5753;54.402;10.220;2023-02-03T00:44:12;101454.13;;;12.89;70.20
11395;BME280;5753;54.402;10.220;2023-02-03T00:46:39;101456.94;;;12.07;74.32
11395;BME280;5753;54.402;10.220;2023-02-03T00:49:05;101449.53;;;11.81;77.36
11395;BME280;5753;54.402;10.220;2023-02-03T00:51:32;101466.06;;;11.89;77.80
11395;BME280;5753;54.402;10.220;2023-02-03T00:53:59;101452.66;;;12.09;74.88
11395;BME280;5753;54.402;10.220;2023-02-03T00:56:25;101464.84;;;11.75;76.90
11395;BME280;5753;54.402;10.220;2023-02-03T00:58:51;101441.22;;;12.41;76.95
11395;BME280;5753;54.402;10.220;2023-02-03T01:01:17;101439.66;;;13.02;71.70
11395;BME280;5753;54.402;10.220;2023-02-03T01:03:44;101431.75;;;12.91;71.04
11395;BME280;5753;54.402;10.220;2023-02-03T01:06:15;101414.97;;;13.22;71.94
11395;BME280;5753;54.402;10.220;2023-02-03T01:08:42;101413.34;;;12.75;73.72
11395;BME280;5753;54.402;10.220;2023-02-03T01:11:14;101396.78;;;13.83;68.32
11395;BME280;5753;54.402;10.220;2023-02-03T01:13:42;101401.53;;;15.31;65.10
11395;BME280;5753;54.402;10.220;2023-02-03T01:16:14;101379.41;;;14.61;65.69
11395;BME280;5753;54.402;10.220;2023-02-03T01:18:41;101371.72;;;13.82;69.00
11395;BME280;5753;54.402;10.220;2023-02-03T01:21:10;101353.50;;;13.73;70.60
11395;BME280;5753;54.402;10.220;2023-02-03T01:23:37;101363.44;;;12.29;79.70
11395;BME280;5753;54.402;10.220;2023-02-03T01:26:09;101376.94;;;11.69;88.27
11395;BME280;5753;54.402;10.220;2023-02-03T01:28:35;101367.25;;;12.00;90.68
11395;BME280;5753;54.402;10.220;2023-02-03T01:31:14;101377.59;;;13.05;88.71
11395;BME280;5753;54.402;10.220;2023-02-03T01:33:40;101375.03;;;12.03;91.87
11395;BME280;5753;54.402;10.220;2023-02-03T01:36:08;101357.28;;;11.77;95.90
11395;BME280;5753;54.402;10.220;2023-02-03T01:38:36;101377.38;;;12.36;89.88
11395;BME280;5753;54.402;10.220;2023-02-03T01:41:03;101355.88;;;11.90;94.60
11395;BME280;5753;54.402;10.220;2023-02-03T01:43:38;101351.44;;;12.84;91.75
11395;BME280;5753;54.402;10.220;2023-02-03T01:48:44;101330.03;;;11.90;98.59
11395;BME280;5753;54.402;10.220;2023-02-03T01:51:10;101314.59;;;13.03;91.65
11395;BME280;5753;54.402;10.220;2023-02-03T01:53:36;101327.91;;;12.16;97.00
11395;BME280;5753;54.402;10.220;2023-02-03T01:56:05;101322.69;;;12.13;95.91
11395;BME280;5753;54.402;10.220;2023-02-03T01:58:34;101317.22;;;13.05;94.34
11395;BME280;5753;54.402;10.220;2023-02-03T02:01:02;101312.38;;;11.69;100.00
11395;BME280;5753;54.402;10.220;2023-02-03T02:03:41;101323.22;;;12.43;97.45
11395;BME280;5753;54.402;10.220;2023-02-03T02:06:11;101318.94;;;11.52;100.00
11395;BME280;5753;54.402;10.220;2023-02-03T02:08:40;101299.69;;;12.29;95.17
11395;BME280;5753;54.402;10.220;2023-02-03T02:11:08;101292.91;;;11.83;98.23
11395;BME280;5753;54.402;10.220;2023-02-03T02:13:34;101290.34;;;12.36;96.22
11395;BME280;5753;54.402;10.220;2023-02-03T02:21:36;101279.16;;;13.67;89.15
11395;BME280;5753;54.402;10.220;2023-02-03T02:29:46;101299.81;;;11.84;98.19
11395;BME280;5753;54.402;10.220;2023-02-03T02:43:09;101255.91;;;12.37;100.00
11395;BME280;5753;54.402;10.220;2023-02-03T02:49:34;101232.63;;;13.01;94.62
11395;BME280;5753;54.402;10.220;2023-02-03T02:51:29;101243.47;;;11.65;100.00
11395;BME280;5753;54.402;10.220;2023-02-03T02:53:59;101219.88;;;11.92;100.00
11395;BME280;5753;54.402;10.220;2023-02-03T02:56:28;101216.84;;;12.19;100.00
11395;BME280;5753;54.402;10.220;2023-02-03T02:58:58;101214.59;;;12.40;100.00
11395;BME280;5753;54.402;10.220;2023-02-03T03:01:25;101220.78;;;11.47;100.00
11395;BME280;5753;54.402;10.220;2023-02-03T03:03:51;101204.72;;;11.65;100.00
11395;BME280;5753;54.402;10.220;2023-02-03T03:06:22;101209.78;;;11.59;100.00
11395;BME280;5753;54.402;10.220;2023-02-03T03:09:07;101215.94;;;11.20;100.00
11395;BME280;5753;54.402;10.220;2023-02-03T03:11:46;101206.16;;;11.48;100.00
11395;BME280;5753;54.402;10.220;2023-02-03T03:14:16;101211.63;;;11.19;100.00
11395;BME280;5753;54.402;10.220;2023-02-03T03:16:47;101209.78;;;10.71;100.00
11395;BME280;5753;54.402;10.220;2023-02-03T03:19:23;101182.63;;;11.79;100.00
11395;BME280;5753;54.402;10.220;2023-02-03T03:22:02;101196.97;;;11.65;100.00
11395;BME280;5753;54.402;10.220;2023-02-03T03:24:40;101199.66;;;11.71;100.00
11395;BME280;5753;54.402;10.220;2023-02-03T03:27:14;101186.16;;;11.84;100.00
11395;BME280;5753;54.402;10.220;2023-02-03T03:29:47;101187.38;;;12.70;98.86
11395;BME280;5753;54.402;10.220;2023-02-03T03:32:15;101182.47;;;11.73;100.00
11395;BME280;5753;54.402;10.220;2023-02-03T03:34:41;101191.75;;;12.12;100.00
11395;BME280;5753;54.402;10.220;2023-02-03T03:39:58;101192.84;;;10.83;100.00
11395;BME280;5753;54.402;10.220;2023-02-03T03:42:53;101195.94;;;11.54;100.00
11395;BME280;5753;54.402;10.220;2023-02-03T03:45:38;101196.13;;;11.66;100.00
11395;BME280;5753;54.402;10.220;2023-02-03T03:48:13;101193.56;;;12.19;100.00
11395;BME280;5753;54.402;10.220;2023-02-03T03:50:48;101193.00;;;11.82;100.00
11395;BME280;5753;54.402;10.220;2023-02-03T03:53:16;101190.78;;;11.54;100.00
11395;BME280;5753;54.402;10.220;2023-02-03T03:55:47;101197.28;;;11.82;100.00
11395;BME280;5753;54.402;10.220;2023-02-03T03:58:25;101178.97;;;11.20;100.00
11395;BME280;5753;54.402;10.220;2023-02-03T04:00:55;101171.72;;;12.57;100.00
11395;BME280;5753;54.402;10.220;2023-02-03T04:03:40;101164.38;;;12.24;100.00
11395;BME280;5753;54.402;10.220;2023-02-03T04:06:08;101167.34;;;11.42;100.00
11395;BME280;5753;54.402;10.220;2023-02-03T04:08:34;101162.31;;;12.64;100.00
11395;BME280;5753;54.402;10.220;2023-02-03T04:11:00;101158.06;;;11.06;100.00
11395;BME280;5753;54.402;10.220;2023-02-03T04:13:26;101140.84;;;11.52;100.00
11395;BME280;5753;54.402;10.220;2023-02-03T04:15:53;101164.22;;;12.14;100.00
11395;BME280;5753;54.402;10.220;2023-02-03T04:18:19;101144.69;;;12.33;100.00
11395;BME280;5753;54.402;10.220;2023-02-03T04:20:45;101133.25;;;12.82;100.00
11395;BME280;5753;54.402;10.220;2023-02-03T04:23:11;101123.19;;;12.35;100.00
11395;BME280;5753;54.402;10.220;2023-02-03T04:25:37;101120.81;;;11.88;100.00
11395;BME280;5753;54.402;10.220;2023-02-03T04:28:04;101106.75;;;13.04;100.00
11395;BME280;5753;54.402;10.220;2023-02-03T04:30:31;101113.91;;;12.52;100.00
11395;BME280;5753;54.402;10.220;2023-02-03T04:32:57;101112.03;;;12.38;100.00
11395;BME280;5753;54.402;10.220;2023-02-03T04:35:23;101106.97;;;11.85;100.00
11395;BME280;5753;54.402;10.220;2023-02-03T04:37:50;101106.22;;;11.39;100.00
11395;BME280;5753;54.402;10.220;2023-02-03T04:40:16;101116.50;;;10.89;100.00
11395;BME280;5753;54.402;10.220;2023-02-03T04:42:42;101116.84;;;11.59;100.00
11395;BME280;5753;54.402;10.220;2023-02-03T04:45:10;101099.66;;;11.61;100.00
11395;BME280;5753;54.402;10.220;2023-02-03T04:47:37;101095.81;;;11.87;100.00
11395;BME280;5753;54.402;10.220;2023-02-03T04:50:04;101096.06;;;12.04;100.00
11395;BME280;5753;54.402;10.220;2023-02-03T04:52:31;101097.94;;;12.16;100.00
11395;BME280;5753;54.402;10.220;2023-02-03T04:54:57;101083.50;;;12.30;100.00
11395;BME280;5753;54.402;10.220;2023-02-03T04:57:23;101109.47;;;11.80;100.00
11395;BME280;5753;54.402;10.220;2023-02-03T04:59:49;101097.84;;;12.10;100.00
11395;BME280;5753;54.402;10.220;2023-02-03T05:02:16;101084.75;;;11.97;100.00
11395;BME280;5753;54.402;10.220;2023-02-03T05:04:42;101074.88;;;11.72;100.00
11395;BME280;5753;54.402;10.220;2023-02-03T05:07:08;101084.69;;;12.58;100.00
11395;BME280;5753;54.402;10.220;2023-02-03T05:09:35;101056.63;;;12.20;100.00
11395;BME280;5753;54.402;10.220;2023-02-03T05:12:01;101077.47;;;11.72;100.00
11395;BME280;5753;54.402;10.220;2023-02-03T05:14:27;101050.81;;;11.20;100.00
11395;BME280;5753;54.402;10.220;2023-02-03T05:16:53;101065.84;;;10.93;100.00
11395;BME280;5753;54.402;10.220;2023-02-03T05:19:19;101062.00;;;11.21;100.00
11395;BME280;5753;54.402;10.220;2023-02-03T05:21:45;101058.75;;;11.32;100.00
11395;BME280;5753;54.402;10.220;2023-02-03T05:24:12;101028.00;;;12.02;100.00
11395;BME280;5753;54.402;10.220;2023-02-03T05:26:38;101067.25;;;11.78;100.00
11395;BME280;5753;54.402;10.220;2023-02-03T05:29:04;101045.56;;;11.14;100.00
11395;BME280;5753;54.402;10.220;2023-02-03T05:31:30;100999.22;;;11.20;100.00
11395;BME280;5753;54.402;10.220;2023-02-03T05:33:58;101002.81;;;11.86;100.00
11395;BME280;5753;54.402;10.220;2023-02-03T05:36:24;101009.00;;;11.38;100.00
11395;BME280;5753;54.402;10.220;2023-02-03T05:38:50;100993.81;;;12.26;100.00
11395;BME280;5753;54.402;10.220;2023-02-03T05:41:16;100972.78;;;11.94;100.00
11395;BME280;5753;54.402;10.220;2023-02-03T05:44:01;100979.53;;;11.83;100.00
11395;BME280;5753;54.402;10.220;2023-02-03T05:46:27;100983.00;;;11.83;100.00
11395;BME280;5753;54.402;10.220;2023-02-03T05:48:53;100966.44;;;11.74;100.00
11395;BME280;5753;54.402;10.220;2023-02-03T05:51:19;100964.75;;;11.76;100.00
11395;BME280;5753;54.402;10.220;2023-02-03T05:53:46;100962.69;;;11.50;100.00
11395;BME280;5753;54.402;10.220;2023-02-03T05:56:12;100941.81;;;11.97;100.00
11395;BME280;5753;54.402;10.220;2023-02-03T05:58:38;100948.50;;;11.81;100.00
11395;BME280;5753;54.402;10.220;2023-02-03T06:01:04;100950.00;;;12.35;100.00
11395;BME280;5753;54.402;10.220;2023-02-03T06:03:31;100954.22;;;12.28;100.00
11395;BME280;5753;54.402;10.220;2023-02-03T06:05:57;100949.28;;;12.48;100.00
11395;BME280;5753;54.402;10.220;2023-02-03T06:08:24;100927.47;;;11.54;100.00
11395;BME280;5753;54.402;10.220;2023-02-03T06:10:59;100933.50;;;12.24;100.00
11395;BME280;5753;54.402;10.220;2023-02-03T06:13:26;100918.00;;;12.24;100.00
11395;BME280;5753;54.402;10.220;2023-02-03T06:15:53;100911.53;;;11.84;100.00
11395;BME280;5753;54.402;10.220;2023-02-03T06:18:19;100899.28;;;12.46;100.00
11395;BME280;5753;54.402;10.220;2023-02-03T06:20:45;100890.59;;;12.38;100.00
11395;BME280;5753;54.402;10.220;2023-02-03T06:23:11;100907.50;;;12.09;100.00
11395;BME280;5753;54.402;10.220;2023-02-03T06:25:38;100886.16;;;12.28;100.00
11395;BME280;5753;54.402;10.220;2023-02-03T06:28:04;100903.34;;;11.52;100.00
11395;BME280;5753;54.402;10.220;2023-02-03T06:30:30;100891.31;;;11.52;100.00
11395;BME280;5753;54.402;10.220;2023-02-03T06:32:56;100898.69;;;11.88;100.00
11395;BME280;5753;54.402;10.220;2023-02-03T06:35:23;100897.78;;;11.85;100.00
11395;BME280;5753;54.402;10.220;2023-02-03T06:37:53;100892.84;;;13.08;100.00
11395;BME280;5753;54.402;10.220;2023-02-03T06:40:19;100897.88;;;12.85;100.00
11395;BME280;5753;54.402;10.220;2023-02-03T06:42:48;100893.81;;;13.17;100.00
11395;BME280;5753;54.402;10.220;2023-02-03T06:45:16;100905.75;;;13.02;100.00
11395;BME280;5753;54.402;10.220;2023-02-03T06:47:44;100928.72;;;13.93;97.87
11395;BME280;5753;54.402;10.220;2023-02-03T06:50:13;100915.56;;;13.47;100.00
11395;BME280;5753;54.402;10.220;2023-02-03T06:52:39;100921.44;;;12.24;100.00
11395;BME280;5753;54.402;10.220;2023-02-03T06:55:06;100927.69;;;13.57;100.00
11395;BME280;5753;54.402;10.220;2023-02-03T06:57:32;100920.09;;;13.95;94.41
11395;BME280;5753;54.402;10.220;2023-02-03T06:59:58;100912.09;;;13.42;96.45
11395;BME280;5753;54.402;10.220;2023-02-03T07:02:25;100938.03;;;13.54;96.79
11395;BME280;5753;54.402;10.220;2023-02-03T07:04:51;100947.94;;;12.91;97.61
11395;BME280;5753;54.402;10.220;2023-02-03T07:07:17;100940.59;;;11.72;100.00
11395;BME280;5753;54.402;10.220;2023-02-03T07:09:43;100934.59;;;12.46;96.70
11395;BME280;5753;54.402;10.220;2023-02-03T07:12:09;100922.59;;;13.72;89.25
11395;BME280;5753;54.402;10.220;2023-02-03T07:14:36;100928.13;;;12.92;91.92
11395;BME280;5753;54.402;10.220;2023-02-03T07:17:04;100939.13;;;12.70;93.96
11395;BME280;5753;54.402;10.220;2023-02-03T07:19:31;100954.47;;;13.64;86.56
11395;BME280;5753;54.402;10.220;2023-02-03T07:21:57;100926.25;;;14.35;82.30
11395;BME280;5753;54.402;10.220;2023-02-03T07:24:23;100949.19;;;13.44;85.08
11395;BME280;5753;54.402;10.220;2023-02-03T07:26:49;100948.38;;;13.49;86.66
11395;BME280;5753;54.402;10.220;2023-02-03T07:29:15;100938.78;;;13.32;85.92
11395;BME280;5753;54.402;10.220;2023-02-03T07:31:41;100936.53;;;14.11;80.78
11395;BME280;5753;54.402;10.220;2023-02-03T07:34:07;100944.63;;;13.09;82.73
11395;BME280;5753;54.402;10.220;2023-02-03T07:36:34;100942.25;;;13.37;81.80
11395;BME280;5753;54.402;10.220;2023-02-03T07:39:00;100953.66;;;13.69;80.94
11395;BME280;5753;54.402;10.220;2023-02-03T07:41:26;100953.81;;;14.15;77.39
11395;BME280;5753;54.402;10.220;2023-02-03T07:43:52;100952.22;;;14.54;76.92
11395;BME280;5753;54.402;10.220;2023-02-03T07:46:18;100978.63;;;13.58;77.41
11395;BME280;5753;54.402;10.220;2023-02-03T07:48:44;100967.16;;;13.22;81.65
11395;BME280;5753;54.402;10.220;2023-02-03T07:51:11;100953.88;;;14.27;78.44
11395;BME280;5753;54.402;10.220;2023-02-03T07:53:37;100974.34;;;13.63;79.26
11395;BME280;5753;54.402;10.220;2023-02-03T07:56:04;100981.44;;;14.04;78.96
11395;BME280;5753;54.402;10.220;2023-02-03T07:58:30;100992.16;;;13.19;78.35
11395;BME280;5753;54.402;10.220;2023-02-03T08:00:57;100982.38;;;12.83;82.94
11395;BME280;5753;54.402;10.220;2023-02-03T08:03:24;101000.94;;;13.35;80.41
11395;BME280;5753;54.402;10.220;2023-02-03T08:05:50;100984.59;;;13.45;80.54
11395;BME280;5753;54.402;10.220;2023-02-03T08:08:18;100983.09;;;12.71;81.98
11395;BME280;5753;54.402;10.220;2023-02-03T08:10:44;100994.66;;;13.11;77.79
11395;BME280;5753;54.402;10.220;2023-02-03T08:13:10;100976.56;;;13.16;77.72
11395;BME280;5753;54.402;10.220;2023-02-03T08:15:36;100992.16;;;13.19;77.67
11395;BME280;5753;54.402;10.220;2023-02-03T08:18:02;101010.75;;;13.89;70.81
11395;BME280;5753;54.402;10.220;2023-02-03T08:20:29;101001.50;;;13.03;76.22
11395;BME280;5753;54.402;10.220;2023-02-03T08:22:55;100996.88;;;12.70;78.15
11395;BME280;5753;54.402;10.220;2023-02-03T08:25:22;100996.59;;;13.34;74.53
11395;BME280;5753;54.402;10.220;2023-02-03T08:27:48;101015.97;;;14.00;70.57
11395;BME280;5753;54.402;10.220;2023-02-03T08:30:14;101003.09;;;12.89;76.56
11395;BME280;5753;54.402;10.220;2023-02-03T08:32:41;101029.03;;;12.16;75.66
11395;BME280;5753;54.402;10.220;2023-02-03T08:35:07;101012.22;;;13.44;70.92
11395;BME280;5753;54.402;10.220;2023-02-03T08:37:33;101021.63;;;13.33;70.98
11395;BME280;5753;54.402;10.220;2023-02-03T08:40:00;101015.25;;;14.31;67.27
11395;BME280;5753;54.402;10.220;2023-02-03T08:42:26;101019.97;;;13.41;69.61
11395;BME280;5753;54.402;10.220;2023-02-03T08:44:52;101044.97;;;12.51;70.69
11395;BME280;5753;54.402;10.220;2023-02-03T08:47:19;101029.97;;;13.05;67.52
11395;BME280;5753;54.402;10.220;2023-02-03T08:49:45;101054.63;;;12.69;71.43
11395;BME280;5753;54.402;10.220;2023-02-03T08:52:12;101042.00;;;13.00;69.31
11395;BME280;5753;54.402;10.220;2023-02-03T08:54:39;101032.38;;;12.08;70.12
11395;BME280;5753;54.402;10.220;2023-02-03T08:57:07;101050.94;;;12.47;69.52
11395;BME280;5753;54.402;10.220;2023-02-03T08:59:33;101042.72;;;12.82;68.81
11395;BME280;5753;54.402;10.220;2023-02-03T09:02:08;101058.19;;;12.79;67.17
11395;BME280;5753;54.402;10.220;2023-02-03T09:04:36;101057.72;;;13.18;64.45
11395;BME280;5753;54.402;10.220;2023-02-03T09:07:02;101052.69;;;12.48;66.96
11395;BME280;5753;54.402;10.220;2023-02-03T09:09:29;101052.25;;;12.89;64.14
11395;BME280;5753;54.402;10.220;2023-02-03T09:11:56;101047.88;;;12.82;64.39
11395;BME280;5753;54.402;10.220;2023-02-03T09:14:28;101075.97;;;13.29;61.03
11395;BME280;5753;54.402;10.220;2023-02-03T09:16:54;101094.34;;;12.76;63.57
11395;BME280;5753;54.402;10.220;2023-02-03T09:19:20;101061.19;;;13.18;62.63
11395;BME280;5753;54.402;10.220;2023-02-03T09:21:48;101076.38;;;13.83;62.90
11395;BME280;5753;54.402;10.220;2023-02-03T09:24:17;101065.41;;;13.13;62.65
11395;BME280;5753;54.402;10.220;2023-02-03T09:26:44;101069.94;;;13.33;62.19
11395;BME280;5753;54.402;10.220;2023-02-03T09:29:10;101065.16;;;13.84;61.60
11395;BME280;5753;54.402;10.220;2023-02-03T09:31:36;101064.00;;;13.43;61.41
11395;BME280;5753;54.402;10.220;2023-02-03T09:34:02;101033.66;;;13.25;61.75
11395;BME280;5753;54.402;10.220;2023-02-03T09:36:29;101062.28;;;13.48;62.59
11395;BME280;5753;54.402;10.220;2023-02-03T09:38:56;101040.31;;;13.02;63.75
11395;BME280;5753;54.402;10.220;2023-02-03T09:46:46;101101.75;;;13.22;62.70
11395;BME280;5753;54.402;10.220;2023-02-03T09:49:28;101163.94;;;11.94;71.14
11395;BME280;5753;54.402;10.220;2023-02-03T09:52:03;101150.81;;;12.39;69.81
11395;BME280;5753;54.402;10.220;2023-02-03T09:54:57;101135.94;;;12.92;69.79
11395;BME280;5753;54.402;10.220;2023-02-03T09:57:41;101139.81;;;11.93;71.07
11395;BME280;5753;54.402;10.220;2023-02-03T10:00:38;101158.25;;;12.18;71.06
11395;BME280;5753;54.402;10.220;2023-02-03T10:06:42;101148.13;;;13.03;63.65
11395;BME280;5753;54.402;10.220;2023-02-03T10:17:31;101178.97;;;12.83;63.16
11395;BME280;5753;54.402;10.220;2023-02-03T10:22:42;101187.75;;;12.97;61.95
11395;BME280;5753;54.402;10.220;2023-02-03T10:27:41;101183.69;;;13.17;61.43
11395;BME280;5753;54.402;10.220;2023-02-03T10:30:26;101180.06;;;13.05;61.74
11395;BME280;5753;54.402;10.220;2023-02-03T10:32:59;101200.13;;;11.95;63.46
11395;BME280;5753;54.402;10.220;2023-02-03T10:38:29;101187.44;;;12.73;61.89
11395;BME280;5753;54.402;10.220;2023-02-03T10:40:59;101207.69;;;13.07;60.95
11395;BME280;5753;54.402;10.220;2023-02-03T10:43:26;101194.72;;;12.36;61.86
11395;BME280;5753;54.402;10.220;2023-02-03T10:46:13;101212.81;;;13.03;59.46
11395;BME280;5753;54.402;10.220;2023-02-03T10:48:40;101199.38;;;13.30;59.77
11395;BME280;5753;54.402;10.220;2023-02-03T10:51:17;101203.56;;;13.21;59.06
11395;BME280;5753;54.402;10.220;2023-02-03T10:53:44;101208.44;;;13.76;58.70
11395;BME280;5753;54.402;10.220;2023-02-03T10:56:13;101215.88;;;12.73;60.01
11395;BME280;5753;54.402;10.220;2023-02-03T10:58:48;101234.72;;;13.28;59.54
11395;BME280;5753;54.402;10.220;2023-02-03T11:01:17;101214.03;;;13.31;58.12
11395;BME280;5753;54.402;10.220;2023-02-03T11:04:00;101211.31;;;13.21;58.51
11395;BME280;5753;54.402;10.220;2023-02-03T11:06:27;101204.56;;;13.31;58.34
11395;BME280;5753;54.402;10.220;2023-02-03T11:08:54;101199.72;;;12.27;61.37
11395;BME280;5753;54.402;10.220;2023-02-03T11:14:10;101210.88;;;13.62;57.80
11395;BME280;5753;54.402;10.220;2023-02-03T11:16:40;101215.34;;;13.75;56.86
11395;BME280;5753;54.402;10.220;2023-02-03T11:19:20;101205.75;;;13.67;57.37
11395;BME280;5753;54.402;10.220;2023-02-03T11:21:50;101205.97;;;13.06;58.83
11395;BME280;5753;54.402;10.220;2023-02-03T11:24:21;101194.69;;;13.01;60.20
11395;BME280;5753;54.402;10.220;2023-02-03T11:27:13;101214.00;;;13.28;58.70
11395;BME280;5753;54.402;10.220;2023-02-03T11:29:46;101211.59;;;13.46;58.91
11395;BME280;5753;54.402;10.220;2023-02-03T11:32:32;101222.31;;;13.02;58.48
11395;BME280;5753;54.402;10.220;2023-02-03T11:37:42;101210.38;;;13.15;57.68
11395;BME280;5753;54.402;10.220;2023-02-03T11:42:38;101251.16;;;12.68;59.35
11395;BME280;5753;54.402;10.220;2023-02-03T11:45:28;101226.19;;;12.71;62.63
11395;BME280;5753;54.402;10.220;2023-02-03T11:50:54;101265.91;;;11.69;73.50
11395;BME280;5753;54.402;10.220;2023-02-03T11:56:30;101244.44;;;12.21;73.86
11395;BME280;5753;54.402;10.220;2023-02-03T12:10:15;101225.31;;;12.10;76.17
11395;BME280;5753;54.402;10.220;2023-02-03T12:18:57;101229.63;;;12.11;71.14
11395;BME280;5753;54.402;10.220;2023-02-03T12:29:41;101235.00;;;11.74;71.68
11395;BME280;5753;54.402;10.220;2023-02-03T12:37:53;101243.47;;;12.15;69.99
11395;BME280;5753;54.402;10.220;2023-02-03T12:45:41;101263.03;;;12.53;68.84
11395;BME280;5753;54.402;10.220;2023-02-03T12:48:18;101239.00;;;12.60;67.91
11395;BME280;5753;54.402;10.220;2023-02-03T12:50:51;101252.34;;;12.89;67.42
11395;BME280;5753;54.402;10.220;2023-02-03T12:53:34;101240.19;;;12.84;66.73
11395;BME280;5753;54.402;10.220;2023-02-03T12:56:16;101243.13;;;13.13;67.52
11395;BME280;5753;54.402;10.220;2023-02-03T12:59:04;101264.41;;;12.30;69.68
11395;BME280;5753;54.402;10.220;2023-02-03T13:01:39;101261.38;;;12.58;66.17
11395;BME280;5753;54.402;10.220;2023-02-03T13:07:06;101269.22;;;12.09;69.08
11395;BME280;5753;54.402;10.220;2023-02-03T13:09:47;101270.59;;;11.88;70.59
11395;BME280;5753;54.402;10.220;2023-02-03T13:15:02;101271.41;;;12.98;64.70
11395;BME280;5753;54.402;10.220;2023-02-03T13:17:42;101265.94;;;11.71;68.69
11395;BME280;5753;54.402;10.220;2023-02-03T13:20:30;101264.94;;;13.29;66.00
11395;BME280;5753;54.402;10.220;2023-02-03T13:23:04;101276.22;;;12.72;65.51
11395;BME280;5753;54.402;10.220;2023-02-03T13:33:52;101289.66;;;13.81;60.37
11395;BME280;5753;54.402;10.220;2023-02-03T13:39:24;101286.13;;;12.41;63.91
11395;BME280;5753;54.402;10.220;2023-02-03T13:42:17;101288.09;;;12.57;62.91
11395;BME280;5753;54.402;10.220;2023-02-03T13:44:48;101286.06;;;12.97;62.59
11395;BME280;5753;54.402;10.220;2023-02-03T13:47:23;101285.53;;;13.22;59.90
11395;BME280;5753;54.402;10.220;2023-02-03T13:50:04;101289.69;;;13.11;60.50
11395;BME280;5753;54.402;10.220;2023-02-03T13:52:52;101284.44;;;13.75;59.83
11395;BME280;5753;54.402;10.220;2023-02-03T13:55:33;101302.84;;;12.65;61.21
11395;BME280;5753;54.402;10.220;2023-02-03T13:58:01;101288.59;;;12.92;59.41
11395;BME280;5753;54.402;10.220;2023-02-03T14:05:56;101317.31;;;13.12;58.87
11395;BME280;5753;54.402;10.220;2023-02-03T14:16:50;101302.28;;;12.84;59.63
11395;BME280;5753;54.402;10.220;2023-02-03T14:21:58;101305.25;;;13.85;58.54
11395;BME280;5753;54.402;10.220;2023-02-03T14:24:38;101308.06;;;12.68;60.16
11395;BME280;5753;54.402;10.220;2023-02-03T14:27:17;101305.19;;;13.78;56.89
11395;BME280;5753;54.402;10.220;2023-02-03T14:29:44;101322.19;;;13.56;57.47
11395;BME280;5753;54.402;10.220;2023-02-03T14:32:12;101303.63;;;12.59;59.77
11395;BME280;5753;54.402;10.220;2023-02-03T14:34:49;101312.00;;;13.03;58.63
11395;BME280;5753;54.402;10.220;2023-02-03T14:37:22;101329.75;;;12.23;59.84
11395;BME280;5753;54.402;10.220;2023-02-03T14:40:00;101322.75;;;12.16;61.16
11395;BME280;5753;54.402;10.220;2023-02-03T14:48:34;101347.09;;;13.45;58.08
11395;BME280;5753;54.402;10.220;2023-02-03T14:51:04;101353.41;;;12.46;60.01
11395;BME280;5753;54.402;10.220;2023-02-03T15:02:11;101379.44;;;12.07;61.06
11395;BME280;5753;54.402;10.220;2023-02-03T15:04:40;101394.81;;;12.49;60.42
11395;BME280;5753;54.402;10.220;2023-02-03T15:07:07;101397.94;;;13.38;59.70
11395;BME280;5753;54.402;10.220;2023-02-03T15:09:44;101406.91;;;13.04;59.95
11395;BME280;5753;54.402;10.220;2023-02-03T15:12:17;101420.88;;;12.61;62.00
11395;BME280;5753;54.402;10.220;2023-02-03T15:14:44;101411.59;;;12.74;62.46
11395;BME280;5753;54.402;10.220;2023-02-03T15:17:27;101425.53;;;13.35;60.67
11395;BME280;5753;54.402;10.220;2023-02-03T15:19:55;101419.75;;;11.98;67.32
11395;BME280;5753;54.402;10.220;2023-02-03T15:22:27;101413.22;;;13.20;63.62
11395;BME280;5753;54.402;10.220;2023-02-03T15:24:59;101438.19;;;12.17;68.03
11395;BME280;5753;54.402;10.220;2023-02-03T15:27:30;101444.34;;;12.72;67.78
11395;BME280;5753;54.402;10.220;2023-02-03T15:29:57;101434.03;;;12.25;71.61
11395;BME280;5753;54.402;10.220;2023-02-03T15:32:32;101426.22;;;11.78;74.72
11395;BME280;5753;54.402;10.220;2023-02-03T15:35:03;101437.03;;;11.62;75.91